sensor_id;sensor_type;location;lat;lon;timestamp;pressure;altitude;pressure_sealevel;temperature;humidity
72428;BME280;60419;48.880;18.036;2023-05-20T00:01:27;99604.78;;;13.04;75.66
72428;BME280;60419;48.880;18.036;2023-05-20T00:04:12;99608.16;;;13.32;74.48
72428;BME280;60419;48.880;18.036;2023-05-20T00:06:57;99597.13;;;12.47;77.30
72428;BME280;60419;48.880;18.036;2023-05-20T00:09:43;99607.34;;;12.50;77.27
72428;BME280;60419;48.880;18.036;2023-05-20T00:12:28;99595.81;;;12.81;76.47
72428;BME280;60419;48.880;18.036;2023-05-20T00:15:14;99600.38;;;12.94;75.77
72428;BME280;60419;48.880;18.036;2023-05-20T00:18:00;99597.09;;;13.28;74.05
72428;BME280;60419;48.880;18.036;2023-05-20T00:20:46;99595.88;;;13.12;74.46
72428;BME280;60419;48.880;18.036;2023-05-20T00:23:31;99592.50;;;13.06;74.43
72428;BME280;60419;48.880;18.036;2023-05-20T00:26:16;99593.97;;;13.35;73.18
72428;BME280;60419;48.880;18.036;2023-05-20T00:29:02;99580.50;;;13.21;73.44
72428;BME280;60419;48.880;18.036;2023-05-20T00:31:47;99587.50;;;13.22;73.72
72428;BME280;60419;48.880;18.036;2023-05-20T00:34:33;99593.38;;;12.93;74.87
72428;BME280;60419;48.880;18.036;2023-05-20T00:37:18;99597.38;;;12.95;74.42
72428;BME280;60419;48.880;18.036;2023-05-20T00:40:04;99603.03;;;13.84;71.18
72428;BME280;60419;48.880;18.036;2023-05-20T00:42:49;99604.00;;;13.88;70.31
72428;BME280;60419;48.880;18.036;2023-05-20T00:45:36;99611.19;;;13.93;70.82
72428;BME280;60419;48.880;18.036;2023-05-20T00:48:22;99598.53;;;13.79;70.67
72428;BME280;60419;48.880;18.036;2023-05-20T00:51:08;99587.41;;;13.90;69.58
72428;BME280;60419;48.880;18.036;2023-05-20T00:53:54;99608.53;;;13.70;70.54
72428;BME280;60419;48.880;18.036;2023-05-20T00:56:40;99608.31;;;13.89;69.82
72428;BME280;60419;48.880;18.036;2023-05-20T00:59:26;99607.53;;;13.88;69.87
72428;BME280;60419;48.880;18.036;2023-05-20T01:02:11;99599.75;;;14.04;69.19
72428;BME280;60419;48.880;18.036;2023-05-20T01:04:57;99597.88;;;13.74;69.79
72428;BME280;60419;48.880;18.036;2023-05-20T01:07:43;99592.66;;;13.86;69.11
72428;BME280;60419;48.880;18.036;2023-05-20T01:10:29;99575.78;;;13.66;69.79
72428;BME280;60419;48.880;18.036;2023-05-20T01:13:19;99594.97;;;13.70;69.73
72428;BME280;60419;48.880;18.036;2023-05-20T01:16:07;99598.63;;;13.65;70.77
72428;BME280;60419;48.880;18.036;2023-05-20T01:18:54;99595.97;;;13.74;69.72
72428;BME280;60419;48.880;18.036;2023-05-20T01:21:42;99594.09;;;13.30;71.16
72428;BME280;60419;48.880;18.036;2023-05-20T01:24:27;99596.59;;;13.49;70.92
72428;BME280;60419;48.880;18.036;2023-05-20T01:27:13;99593.56;;;13.19;71.51
72428;BME280;60419;48.880;18.036;2023-05-20T01:29:59;99597.41;;;12.82;73.16
72428;BME280;60419;48.880;18.036;2023-05-20T01:32:49;99597.25;;;13.00;73.09
72428;BME280;60419;48.880;18.036;2023-05-20T01:35:38;99587.06;;;12.84;72.86
72428;BME280;60419;48.880;18.036;2023-05-20T01:38:25;99591.69;;;12.47;74.29
72428;BME280;60419;48.880;18.036;2023-05-20T01:41:11;99588.97;;;12.47;74.93
72428;BME280;60419;48.880;18.036;2023-05-20T01:43:57;99595.19;;;12.47;74.37
72428;BME280;60419;48.880;18.036;2023-05-20T01:46:48;99598.59;;;12.67;73.98
72428;BME280;60419;48.880;18.036;2023-05-20T01:49:33;99597.69;;;12.57;73.75
72428;BME280;60419;48.880;18.036;2023-05-20T01:52:20;99595.72;;;12.22;74.97
72428;BME280;60419;48.880;18.036;2023-05-20T01:55:05;99589.03;;;11.91;76.38
72428;BME280;60419;48.880;18.036;2023-05-20T01:57:51;99587.91;;;12.06;76.48
72428;BME280;60419;48.880;18.036;2023-05-20T02:00:36;99579.09;;;12.14;75.62
72428;BME280;60419;48.880;18.036;2023-05-20T02:03:22;99592.78;;;12.60;74.11
72428;BME280;60419;48.880;18.036;2023-05-20T02:06:07;99590.00;;;12.23;75.11
72428;BME280;60419;48.880;18.036;2023-05-20T02:08:53;99598.44;;;11.80;76.92
72428;BME280;60419;48.880;18.036;2023-05-20T02:11:38;99592.19;;;11.66;77.67
72428;BME280;60419;48.880;18.036;2023-05-20T02:14:23;99587.09;;;11.92;76.91
72428;BME280;60419;48.880;18.036;2023-05-20T02:17:09;99584.81;;;11.85;77.40
72428;BME280;60419;48.880;18.036;2023-05-20T02:19:54;99576.88;;;12.03;77.06
72428;BME280;60419;48.880;18.036;2023-05-20T02:22:40;99566.66;;;11.86;77.56
72428;BME280;60419;48.880;18.036;2023-05-20T02:25:25;99588.81;;;12.29;76.34
72428;BME280;60419;48.880;18.036;2023-05-20T02:28:10;99580.97;;;12.42;75.37
72428;BME280;60419;48.880;18.036;2023-05-20T02:30:56;99591.22;;;12.17;76.40
72428;BME280;60419;48.880;18.036;2023-05-20T02:33:41;99581.91;;;12.96;73.53
72428;BME280;60419;48.880;18.036;2023-05-20T02:36:26;99586.59;;;13.04;72.77
72428;BME280;60419;48.880;18.036;2023-05-20T02:39:12;99593.03;;;12.94;73.42
72428;BME280;60419;48.880;18.036;2023-05-20T02:41:57;99585.53;;;12.91;73.17
72428;BME280;60419;48.880;18.036;2023-05-20T02:44:43;99592.22;;;12.35;74.92
72428;BME280;60419;48.880;18.036;2023-05-20T02:47:28;99589.81;;;11.92;75.75
72428;BME280;60419;48.880;18.036;2023-05-20T02:50:13;99604.84;;;11.84;77.12
72428;BME280;60419;48.880;18.036;2023-05-20T02:52:59;99601.66;;;12.38;75.48
72428;BME280;60419;48.880;18.036;2023-05-20T02:55:45;99594.91;;;12.21;75.94
72428;BME280;60419;48.880;18.036;2023-05-20T02:58:34;99581.59;;;12.75;74.27
72428;BME280;60419;48.880;18.036;2023-05-20T03:01:19;99592.50;;;12.06;77.35
72428;BME280;60419;48.880;18.036;2023-05-20T03:04:06;99605.75;;;12.49;75.95
72428;BME280;60419;48.880;18.036;2023-05-20T03:06:51;99597.72;;;12.44;75.85
72428;BME280;60419;48.880;18.036;2023-05-20T03:09:36;99586.13;;;12.66;75.08
72428;BME280;60419;48.880;18.036;2023-05-20T03:12:22;99576.50;;;11.35;79.74
72428;BME280;60419;48.880;18.036;2023-05-20T03:15:10;99570.19;;;11.26;80.13
72428;BME280;60419;48.880;18.036;2023-05-20T03:17:56;99586.00;;;11.65;78.74
72428;BME280;60419;48.880;18.036;2023-05-20T03:20:42;99492.34;;;11.09;78.28
72428;BME280;60419;48.880;18.036;2023-05-20T03:23:27;99589.47;;;11.52;78.46
72428;BME280;60419;48.880;18.036;2023-05-20T03:26:12;99595.88;;;11.56;78.39
72428;BME280;60419;48.880;18.036;2023-05-20T03:28:58;99588.09;;;11.55;78.61
72428;BME280;60419;48.880;18.036;2023-05-20T03:31:46;99577.78;;;11.24;79.64
72428;BME280;60419;48.880;18.036;2023-05-20T03:34:31;99564.16;;;11.15;80.01
72428;BME280;60419;48.880;18.036;2023-05-20T03:37:17;99566.34;;;11.13;80.28
72428;BME280;60419;48.880;18.036;2023-05-20T03:40:02;99569.03;;;11.46;78.85
72428;BME280;60419;48.880;18.036;2023-05-20T03:42:51;99554.88;;;11.35;79.49
72428;BME280;60419;48.880;18.036;2023-05-20T03:45:36;99553.19;;;11.53;78.54
72428;BME280;60419;48.880;18.036;2023-05-20T03:48:21;99531.47;;;11.58;78.25
72428;BME280;60419;48.880;18.036;2023-05-20T03:51:07;99577.25;;;11.41;78.93
72428;BME280;60419;48.880;18.036;2023-05-20T03:53:52;99563.75;;;11.68;77.65
72428;BME280;60419;48.880;18.036;2023-05-20T03:56:38;99584.50;;;11.87;77.22
72428;BME280;60419;48.880;18.036;2023-05-20T03:59:23;99591.50;;;11.60;77.76
72428;BME280;60419;48.880;18.036;2023-05-20T04:02:08;99572.19;;;11.67;77.37
72428;BME280;60419;48.880;18.036;2023-05-20T04:04:54;99552.13;;;11.54;77.49
72428;BME280;60419;48.880;18.036;2023-05-20T04:07:41;99586.19;;;11.69;77.67
72428;BME280;60419;48.880;18.036;2023-05-20T04:10:27;99590.63;;;11.32;79.12
72428;BME280;60419;48.880;18.036;2023-05-20T04:13:13;99588.00;;;11.60;77.68
72428;BME280;60419;48.880;18.036;2023-05-20T04:15:58;99593.91;;;11.62;78.14
72428;BME280;60419;48.880;18.036;2023-05-20T04:18:45;99570.41;;;11.43;78.76
72428;BME280;60419;48.880;18.036;2023-05-20T04:21:32;99601.88;;;11.39;78.89
72428;BME280;60419;48.880;18.036;2023-05-20T04:24:17;99587.72;;;11.75;77.91
72428;BME280;60419;48.880;18.036;2023-05-20T04:27:03;99561.75;;;11.60;77.92
72428;BME280;60419;48.880;18.036;2023-05-20T04:29:48;99571.25;;;11.11;79.70
72428;BME280;60419;48.880;18.036;2023-05-20T04:32:34;99592.72;;;11.21;79.83
72428;BME280;60419;48.880;18.036;2023-05-20T04:35:20;99571.34;;;11.39;79.04
72428;BME280;60419;48.880;18.036;2023-05-20T04:38:05;99602.81;;;11.16;79.65
72428;BME280;60419;48.880;18.036;2023-05-20T04:40:51;99594.13;;;11.33;79.59
72428;BME280;60419;48.880;18.036;2023-05-20T04:43:36;99580.97;;;11.59;78.70
72428;BME280;60419;48.880;18.036;2023-05-20T04:46:24;99590.03;;;11.35;78.80
72428;BME280;60419;48.880;18.036;2023-05-20T04:49:10;99595.81;;;11.61;78.30
72428;BME280;60419;48.880;18.036;2023-05-20T04:51:55;99583.94;;;11.43;78.67
72428;BME280;60419;48.880;18.036;2023-05-20T04:54:40;99591.03;;;11.86;77.38
72428;BME280;60419;48.880;18.036;2023-05-20T04:57:26;99599.63;;;11.74;77.84
72428;BME280;60419;48.880;18.036;2023-05-20T05:00:12;99611.38;;;11.83;77.07
72428;BME280;60419;48.880;18.036;2023-05-20T05:02:57;99594.81;;;11.85;77.19
72428;BME280;60419;48.880;18.036;2023-05-20T05:05:43;99612.16;;;11.98;77.24
72428;BME280;60419;48.880;18.036;2023-05-20T05:08:28;99615.63;;;12.67;74.13
72428;BME280;60419;48.880;18.036;2023-05-20T05:11:14;99614.97;;;12.84;73.91
72428;BME280;60419;48.880;18.036;2023-05-20T05:13:59;99586.28;;;12.47;74.01
72428;BME280;60419;48.880;18.036;2023-05-20T05:16:45;99617.31;;;12.77;73.68
72428;BME280;60419;48.880;18.036;2023-05-20T05:19:30;99617.09;;;12.51;75.29
72428;BME280;60419;48.880;18.036;2023-05-20T05:22:15;99609.75;;;13.33;71.84
72428;BME280;60419;48.880;18.036;2023-05-20T05:25:02;99592.75;;;12.96;72.87
72428;BME280;60419;48.880;18.036;2023-05-20T05:27:47;99608.78;;;13.29;72.49
72428;BME280;60419;48.880;18.036;2023-05-20T05:30:34;99589.41;;;12.99;72.73
72428;BME280;60419;48.880;18.036;2023-05-20T05:33:19;99607.53;;;13.12;73.03
72428;BME280;60419;48.880;18.036;2023-05-20T05:36:05;99582.88;;;13.22;72.48
72428;BME280;60419;48.880;18.036;2023-05-20T05:38:50;99592.75;;;13.18;72.51
72428;BME280;60419;48.880;18.036;2023-05-20T05:41:36;99605.38;;;13.45;71.95
72428;BME280;60419;48.880;18.036;2023-05-20T05:44:21;99594.19;;;14.09;69.38
72428;BME280;60419;48.880;18.036;2023-05-20T05:47:07;99599.00;;;14.30;69.61
72428;BME280;60419;48.880;18.036;2023-05-20T05:49:52;99602.19;;;14.23;69.46
72428;BME280;60419;48.880;18.036;2023-05-20T05:52:37;99590.31;;;14.85;67.04
72428;BME280;60419;48.880;18.036;2023-05-20T05:55:23;99594.94;;;13.61;70.97
72428;BME280;60419;48.880;18.036;2023-05-20T05:58:08;99598.66;;;13.74;70.92
72428;BME280;60419;48.880;18.036;2023-05-20T06:00:53;99596.50;;;13.54;71.22
72428;BME280;60419;48.880;18.036;2023-05-20T06:03:39;99592.47;;;13.82;70.53
72428;BME280;60419;48.880;18.036;2023-05-20T06:06:25;99587.78;;;13.65;70.93
72428;BME280;60419;48.880;18.036;2023-05-20T06:09:10;99598.13;;;14.03;70.21
72428;BME280;60419;48.880;18.036;2023-05-20T06:11:55;99600.41;;;14.19;69.32
72428;BME280;60419;48.880;18.036;2023-05-20T06:14:41;99595.53;;;14.38;69.10
72428;BME280;60419;48.880;18.036;2023-05-20T06:17:26;99597.31;;;13.94;70.29
72428;BME280;60419;48.880;18.036;2023-05-20T06:20:12;99589.94;;;13.86;70.98
72428;BME280;60419;48.880;18.036;2023-05-20T06:22:57;99593.34;;;14.00;70.65
72428;BME280;60419;48.880;18.036;2023-05-20T06:25:42;99591.16;;;14.20;70.08
72428;BME280;60419;48.880;18.036;2023-05-20T06:28:28;99583.53;;;14.48;68.86
72428;BME280;60419;48.880;18.036;2023-05-20T06:31:15;99595.53;;;15.25;66.18
72428;BME280;60419;48.880;18.036;2023-05-20T06:34:00;99587.69;;;15.32;66.08
72428;BME280;60419;48.880;18.036;2023-05-20T06:36:46;99593.81;;;14.86;67.94
72428;BME280;60419;48.880;18.036;2023-05-20T06:39:31;99583.41;;;15.14;67.10
72428;BME280;60419;48.880;18.036;2023-05-20T06:42:16;99590.94;;;14.91;67.05
72428;BME280;60419;48.880;18.036;2023-05-20T06:45:02;99597.91;;;15.44;65.92
72428;BME280;60419;48.880;18.036;2023-05-20T06:47:47;99588.06;;;15.69;65.56
72428;BME280;60419;48.880;18.036;2023-05-20T06:50:34;99582.88;;;16.23;64.04
72428;BME280;60419;48.880;18.036;2023-05-20T06:53:19;99573.19;;;15.67;64.16
72428;BME280;60419;48.880;18.036;2023-05-20T06:56:05;99585.56;;;15.94;64.50
72428;BME280;60419;48.880;18.036;2023-05-20T06:58:50;99579.81;;;15.48;65.29
72428;BME280;60419;48.880;18.036;2023-05-20T07:01:36;99575.19;;;15.40;65.57
72428;BME280;60419;48.880;18.036;2023-05-20T07:04:21;99576.50;;;15.81;64.49
72428;BME280;60419;48.880;18.036;2023-05-20T07:07:07;99565.41;;;15.86;64.91
72428;BME280;60419;48.880;18.036;2023-05-20T07:09:53;99551.28;;;15.93;64.40
72428;BME280;60419;48.880;18.036;2023-05-20T07:12:39;99550.59;;;16.25;62.97
72428;BME280;60419;48.880;18.036;2023-05-20T07:15:24;99543.22;;;15.67;64.28
72428;BME280;60419;48.880;18.036;2023-05-20T07:18:10;99553.28;;;15.75;65.00
72428;BME280;60419;48.880;18.036;2023-05-20T07:20:55;99556.22;;;15.61;64.77
72428;BME280;60419;48.880;18.036;2023-05-20T07:23:41;99545.56;;;15.86;64.24
72428;BME280;60419;48.880;18.036;2023-05-20T07:26:26;99550.03;;;16.83;61.54
72428;BME280;60419;48.880;18.036;2023-05-20T07:29:11;99526.53;;;16.69;60.91
72428;BME280;60419;48.880;18.036;2023-05-20T07:31:57;99545.25;;;16.59;61.44
72428;BME280;60419;48.880;18.036;2023-05-20T07:34:42;99539.00;;;16.79;62.46
72428;BME280;60419;48.880;18.036;2023-05-20T07:37:27;99536.03;;;16.00;63.52
72428;BME280;60419;48.880;18.036;2023-05-20T07:40:13;99529.47;;;16.64;61.49
72428;BME280;60419;48.880;18.036;2023-05-20T07:42:58;99532.84;;;17.03;60.81
72428;BME280;60419;48.880;18.036;2023-05-20T07:45:44;99536.50;;;17.07;60.37
72428;BME280;60419;48.880;18.036;2023-05-20T07:48:29;99529.53;;;17.68;59.75
72428;BME280;60419;48.880;18.036;2023-05-20T07:51:14;99539.31;;;17.69;59.30
72428;BME280;60419;48.880;18.036;2023-05-20T07:54:00;99527.88;;;17.30;60.15
72428;BME280;60419;48.880;18.036;2023-05-20T07:56:46;99522.88;;;17.32;59.41
72428;BME280;60419;48.880;18.036;2023-05-20T07:59:31;99521.09;;;17.61;59.92
72428;BME280;60419;48.880;18.036;2023-05-20T08:02:16;99515.66;;;17.97;58.25
72428;BME280;60419;48.880;18.036;2023-05-20T08:05:02;99518.63;;;17.92;59.18
72428;BME280;60419;48.880;18.036;2023-05-20T08:07:49;99517.91;;;18.20;58.56
72428;BME280;60419;48.880;18.036;2023-05-20T08:10:35;99521.47;;;17.84;58.17
72428;BME280;60419;48.880;18.036;2023-05-20T08:13:20;99514.31;;;18.04;58.55
72428;BME280;60419;48.880;18.036;2023-05-20T08:16:05;99513.84;;;18.14;57.47
72428;BME280;60419;48.880;18.036;2023-05-20T08:18:51;99504.75;;;18.50;56.83
72428;BME280;60419;48.880;18.036;2023-05-20T08:21:36;99504.88;;;19.73;54.89
72428;BME280;60419;48.880;18.036;2023-05-20T08:24:22;99497.75;;;20.04;54.07
72428;BME280;60419;48.880;18.036;2023-05-20T08:27:07;99492.31;;;18.53;56.93
72428;BME280;60419;48.880;18.036;2023-05-20T08:29:53;99492.16;;;18.89;56.74
72428;BME280;60419;48.880;18.036;2023-05-20T08:32:38;99480.88;;;19.07;55.73
72428;BME280;60419;48.880;18.036;2023-05-20T08:35:24;99486.34;;;18.91;57.29
72428;BME280;60419;48.880;18.036;2023-05-20T08:38:10;99485.31;;;18.67;57.19
72428;BME280;60419;48.880;18.036;2023-05-20T08:40:56;99466.19;;;18.83;57.29
72428;BME280;60419;48.880;18.036;2023-05-20T08:43:42;99474.28;;;19.56;55.44
72428;BME280;60419;48.880;18.036;2023-05-20T08:46:31;99463.91;;;19.01;54.54
72428;BME280;60419;48.880;18.036;2023-05-20T08:49:19;99466.94;;;19.44;54.62
72428;BME280;60419;48.880;18.036;2023-05-20T08:52:05;99472.19;;;19.65;54.27
72428;BME280;60419;48.880;18.036;2023-05-20T08:54:52;99448.06;;;19.90;53.42
72428;BME280;60419;48.880;18.036;2023-05-20T08:57:38;99470.50;;;19.60;54.37
72428;BME280;60419;48.880;18.036;2023-05-20T09:00:26;99460.16;;;20.82;52.01
72428;BME280;60419;48.880;18.036;2023-05-20T09:03:12;99458.72;;;19.75;53.88
72428;BME280;60419;48.880;18.036;2023-05-20T09:06:08;99451.97;;;20.44;52.80
72428;BME280;60419;48.880;18.036;2023-05-20T09:08:53;99461.38;;;20.07;53.23
72428;BME280;60419;48.880;18.036;2023-05-20T09:11:40;99454.72;;;19.89;53.75
72428;BME280;60419;48.880;18.036;2023-05-20T09:14:27;99451.72;;;20.33;52.83
72428;BME280;60419;48.880;18.036;2023-05-20T09:17:12;99449.06;;;20.01;53.52
72428;BME280;60419;48.880;18.036;2023-05-20T09:19:58;99446.13;;;20.88;52.63
72428;BME280;60419;48.880;18.036;2023-05-20T09:22:43;99445.31;;;20.64;51.26
72428;BME280;60419;48.880;18.036;2023-05-20T09:25:29;99446.44;;;20.82;52.95
72428;BME280;60419;48.880;18.036;2023-05-20T09:28:14;99448.94;;;20.91;51.34
72428;BME280;60419;48.880;18.036;2023-05-20T09:31:00;99432.88;;;21.39;49.36
72428;BME280;60419;48.880;18.036;2023-05-20T09:33:48;99439.53;;;20.92;50.05
72428;BME280;60419;48.880;18.036;2023-05-20T09:36:33;99444.38;;;21.71;48.54
72428;BME280;60419;48.880;18.036;2023-05-20T09:39:24;99444.72;;;22.23;47.28
72428;BME280;60419;48.880;18.036;2023-05-20T09:42:17;99435.81;;;22.33;47.51
72428;BME280;60419;48.880;18.036;2023-05-20T09:45:06;99423.91;;;22.59;47.76
72428;BME280;60419;48.880;18.036;2023-05-20T09:47:54;99424.81;;;23.12;46.99
72428;BME280;60419;48.880;18.036;2023-05-20T09:50:41;99433.72;;;22.23;47.10
72428;BME280;60419;48.880;18.036;2023-05-20T09:53:27;99424.19;;;22.17;44.84
72428;BME280;60419;48.880;18.036;2023-05-20T09:56:12;99417.91;;;22.50;44.82
72428;BME280;60419;48.880;18.036;2023-05-20T09:58:58;99422.59;;;22.16;44.91
72428;BME280;60419;48.880;18.036;2023-05-20T10:01:44;99418.50;;;22.70;43.71
72428;BME280;60419;48.880;18.036;2023-05-20T10:04:32;99421.03;;;22.86;44.89
72428;BME280;60419;48.880;18.036;2023-05-20T10:20:00;99403.31;;;23.91;43.02
72428;BME280;60419;48.880;18.036;2023-05-20T10:22:57;99391.41;;;24.81;45.76
72428;BME280;60419;48.880;18.036;2023-05-20T10:25:49;99390.22;;;24.96;46.55
72428;BME280;60419;48.880;18.036;2023-05-20T10:28:38;99383.13;;;24.99;39.67
72428;BME280;60419;48.880;18.036;2023-05-20T10:31:24;99389.84;;;25.23;41.82
72428;BME280;60419;48.880;18.036;2023-05-20T10:34:17;99385.78;;;24.35;47.33
72428;BME280;60419;48.880;18.036;2023-05-20T10:37:03;99381.16;;;24.96;42.38
72428;BME280;60419;48.880;18.036;2023-05-20T10:39:49;99381.44;;;24.37;41.26
72428;BME280;60419;48.880;18.036;2023-05-20T10:42:34;99373.25;;;24.91;41.44
72428;BME280;60419;48.880;18.036;2023-05-20T10:45:27;99375.22;;;25.19;40.03
72428;BME280;60419;48.880;18.036;2023-05-20T10:48:40;99369.25;;;25.71;40.41
72428;BME280;60419;48.880;18.036;2023-05-20T10:51:27;99364.19;;;25.26;39.71
72428;BME280;60419;48.880;18.036;2023-05-20T10:54:13;99348.75;;;24.68;39.64
72428;BME280;60419;48.880;18.036;2023-05-20T10:56:59;99359.84;;;25.00;41.38
72428;BME280;60419;48.880;18.036;2023-05-20T10:59:45;99352.25;;;25.69;38.99
72428;BME280;60419;48.880;18.036;2023-05-20T11:02:31;99358.94;;;25.78;36.98
72428;BME280;60419;48.880;18.036;2023-05-20T11:05:18;99340.75;;;25.77;37.89
72428;BME280;60419;48.880;18.036;2023-05-20T11:08:06;99333.31;;;26.44;38.39
72428;BME280;60419;48.880;18.036;2023-05-20T11:10:55;99334.78;;;25.90;35.65
72428;BME280;60419;48.880;18.036;2023-05-20T11:13:40;99326.69;;;24.86;37.72
72428;BME280;60419;48.880;18.036;2023-05-20T11:16:26;99328.94;;;25.66;37.35
72428;BME280;60419;48.880;18.036;2023-05-20T11:19:15;99319.84;;;25.73;38.88
72428;BME280;60419;48.880;18.036;2023-05-20T11:22:00;99312.47;;;26.29;37.03
72428;BME280;60419;48.880;18.036;2023-05-20T11:24:46;99307.88;;;26.60;36.28
72428;BME280;60419;48.880;18.036;2023-05-20T11:27:32;99298.25;;;26.83;34.01
72428;BME280;60419;48.880;18.036;2023-05-20T11:30:17;99288.75;;;26.28;34.01
72428;BME280;60419;48.880;18.036;2023-05-20T11:33:04;99302.69;;;26.03;35.29
72428;BME280;60419;48.880;18.036;2023-05-20T11:35:53;99288.66;;;26.91;34.08
72428;BME280;60419;48.880;18.036;2023-05-20T11:38:39;99283.88;;;26.95;34.17
72428;BME280;60419;48.880;18.036;2023-05-20T11:41:26;99269.66;;;26.93;32.96
72428;BME280;60419;48.880;18.036;2023-05-20T11:44:12;99286.56;;;27.06;32.98
72428;BME280;60419;48.880;18.036;2023-05-20T11:46:59;99275.47;;;27.02;34.15
72428;BME280;60419;48.880;18.036;2023-05-20T11:49:47;99290.72;;;27.63;32.95
72428;BME280;60419;48.880;18.036;2023-05-20T11:52:33;99276.88;;;27.59;32.64
72428;BME280;60419;48.880;18.036;2023-05-20T11:55:19;99282.94;;;27.81;32.56
72428;BME280;60419;48.880;18.036;2023-05-20T11:58:04;99285.56;;;27.92;31.56
72428;BME280;60419;48.880;18.036;2023-05-20T12:00:50;99291.16;;;27.88;32.39
72428;BME280;60419;48.880;18.036;2023-05-20T12:03:35;99276.28;;;27.75;31.36
72428;BME280;60419;48.880;18.036;2023-05-20T12:06:24;99289.75;;;27.39;32.16
72428;BME280;60419;48.880;18.036;2023-05-20T12:09:09;99282.50;;;27.52;30.80
72428;BME280;60419;48.880;18.036;2023-05-20T12:11:55;99273.50;;;27.41;32.11
72428;BME280;60419;48.880;18.036;2023-05-20T12:14:41;99276.63;;;27.46;32.88
72428;BME280;60419;48.880;18.036;2023-05-20T12:17:26;99284.22;;;27.73;33.19
72428;BME280;60419;48.880;18.036;2023-05-20T12:20:13;99278.72;;;27.35;33.42
72428;BME280;60419;48.880;18.036;2023-05-20T12:23:00;99280.19;;;27.47;33.05
72428;BME280;60419;48.880;18.036;2023-05-20T12:25:45;99284.19;;;27.42;32.54
72428;BME280;60419;48.880;18.036;2023-05-20T12:28:33;99276.63;;;27.46;32.65
72428;BME280;60419;48.880;18.036;2023-05-20T12:31:19;99276.78;;;27.66;31.63
72428;BME280;60419;48.880;18.036;2023-05-20T12:34:04;99284.34;;;27.62;32.09
72428;BME280;60419;48.880;18.036;2023-05-20T12:36:50;99270.91;;;27.91;32.97
72428;BME280;60419;48.880;18.036;2023-05-20T12:39:35;99272.19;;;28.14;32.29
72428;BME280;60419;48.880;18.036;2023-05-20T12:42:21;99248.53;;;28.06;31.21
72428;BME280;60419;48.880;18.036;2023-05-20T12:45:07;99260.44;;;28.30;30.63
72428;BME280;60419;48.880;18.036;2023-05-20T12:47:53;99258.44;;;28.57;31.09
72428;BME280;60419;48.880;18.036;2023-05-20T12:50:39;99260.53;;;27.95;30.88
72428;BME280;60419;48.880;18.036;2023-05-20T12:53:25;99265.06;;;28.40;30.73
72428;BME280;60419;48.880;18.036;2023-05-20T12:56:10;99258.00;;;27.77;31.01
72428;BME280;60419;48.880;18.036;2023-05-20T12:58:55;99259.75;;;27.95;31.59
72428;BME280;60419;48.880;18.036;2023-05-20T13:01:42;99261.63;;;28.01;31.29
72428;BME280;60419;48.880;18.036;2023-05-20T13:04:27;99259.38;;;27.62;30.91
72428;BME280;60419;48.880;18.036;2023-05-20T13:07:12;99258.94;;;27.67;31.78
72428;BME280;60419;48.880;18.036;2023-05-20T13:09:58;99260.22;;;27.25;32.94
72428;BME280;60419;48.880;18.036;2023-05-20T13:12:44;99248.09;;;27.46;33.30
72428;BME280;60419;48.880;18.036;2023-05-20T13:15:30;99256.06;;;27.40;31.54
72428;BME280;60419;48.880;18.036;2023-05-20T13:18:17;99238.53;;;27.16;32.00
72428;BME280;60419;48.880;18.036;2023-05-20T13:21:03;99242.47;;;27.15;32.46
72428;BME280;60419;48.880;18.036;2023-05-20T13:23:48;99241.34;;;27.47;31.79
72428;BME280;60419;48.880;18.036;2023-05-20T13:26:34;99222.81;;;27.98;31.36
72428;BME280;60419;48.880;18.036;2023-05-20T13:29:19;99222.59;;;28.16;31.21
72428;BME280;60419;48.880;18.036;2023-05-20T13:32:05;99218.31;;;28.35;30.30
72428;BME280;60419;48.880;18.036;2023-05-20T13:34:50;99231.50;;;27.73;30.27
72428;BME280;60419;48.880;18.036;2023-05-20T13:37:36;99225.84;;;27.80;30.74
72428;BME280;60419;48.880;18.036;2023-05-20T13:40:21;99216.63;;;28.17;29.66
72428;BME280;60419;48.880;18.036;2023-05-20T13:43:06;99213.31;;;28.26;30.90
72428;BME280;60419;48.880;18.036;2023-05-20T13:45:52;99213.81;;;28.68;29.04
72428;BME280;60419;48.880;18.036;2023-05-20T13:48:37;99219.72;;;29.14;29.81
72428;BME280;60419;48.880;18.036;2023-05-20T13:51:23;99217.69;;;27.96;29.92
72428;BME280;60419;48.880;18.036;2023-05-20T13:54:08;99208.16;;;28.48;28.92
72428;BME280;60419;48.880;18.036;2023-05-20T13:56:54;99208.31;;;28.88;29.23
72428;BME280;60419;48.880;18.036;2023-05-20T13:59:40;99198.47;;;28.83;29.22
72428;BME280;60419;48.880;18.036;2023-05-20T14:02:26;99196.84;;;28.12;28.84
72428;BME280;60419;48.880;18.036;2023-05-20T14:05:12;99198.94;;;28.55;29.61
72428;BME280;60419;48.880;18.036;2023-05-20T14:07:58;99198.50;;;28.56;30.19
72428;BME280;60419;48.880;18.036;2023-05-20T14:10:43;99188.06;;;28.17;30.31
72428;BME280;60419;48.880;18.036;2023-05-20T14:13:28;99194.06;;;28.39;29.45
72428;BME280;60419;48.880;18.036;2023-05-20T14:16:14;99203.72;;;28.54;29.43
72428;BME280;60419;48.880;18.036;2023-05-20T14:18:59;99197.34;;;28.54;28.71
72428;BME280;60419;48.880;18.036;2023-05-20T14:21:45;99192.06;;;28.39;29.09
72428;BME280;60419;48.880;18.036;2023-05-20T14:24:30;99203.56;;;28.61;28.33
72428;BME280;60419;48.880;18.036;2023-05-20T14:27:16;99181.34;;;27.87;29.28
72428;BME280;60419;48.880;18.036;2023-05-20T14:30:01;99184.19;;;28.11;29.39
72428;BME280;60419;48.880;18.036;2023-05-20T14:32:47;99179.19;;;28.26;29.07
72428;BME280;60419;48.880;18.036;2023-05-20T14:35:32;99194.94;;;28.56;29.21
72428;BME280;60419;48.880;18.036;2023-05-20T14:38:19;99197.97;;;27.29;34.84
72428;BME280;60419;48.880;18.036;2023-05-20T14:41:05;99194.69;;;27.38;35.05